createdAt,value
2023-02-11T00:01:08.972Z,102160.69
2023-02-11T00:03:36.038Z,102158.03
2023-02-11T00:06:06.327Z,102154.38
2023-02-11T00:08:32.883Z,102155.19
2023-02-11T00:10:59.627Z,102163.13
2023-02-11T00:13:26.470Z,102163.13
2023-02-11T00:15:54.589Z,102167.63
2023-02-11T00:18:22.155Z,102182.69
2023-02-11T00:20:48.822Z,102176.38
2023-02-11T00:23:15.369Z,102160.69
2023-02-11T00:25:43.404Z,102169.44
2023-02-11T00:28:11.120Z,102169.44
2023-02-11T00:30:37.927Z,102174.75
2023-02-11T00:33:04.512Z,102163.50
2023-02-11T00:35:31.101Z,102172.31
2023-02-11T00:37:57.627Z,102174.31
2023-02-11T00:40:24.231Z,102163.72
2023-02-11T00:42:50.773Z,102168.81
2023-02-11T00:45:17.459Z,102163.72
2023-02-11T00:47:43.949Z,102161.06
2023-02-11T00:50:10.587Z,102162.09
2023-02-11T00:52:37.124Z,102155.75
2023-02-11T00:55:03.821Z,102156.41
2023-02-11T00:57:30.396Z,102151.09
2023-02-11T00:59:56.896Z,102142.13
2023-02-11T01:02:23.386Z,102138.66
2023-02-11T01:04:50.117Z,102141.31
2023-02-11T01:07:16.694Z,102149.28
2023-02-11T01:09:43.181Z,102143.97
2023-02-11T01:12:09.699Z,102145.59
2023-02-11T01:14:36.202Z,102153.34
2023-02-11T01:17:05.868Z,102149.06
2023-02-11T01:19:32.413Z,102164.59
2023-02-11T01:21:59.036Z,102166.59
2023-02-11T01:24:25.557Z,102171.53
2023-02-11T01:26:52.099Z,102161.94
2023-02-11T01:29:18.574Z,102176.81
2023-02-11T01:31:45.127Z,102169.69
2023-02-11T01:34:11.703Z,102168.88
2023-02-11T01:36:38.278Z,102175.81
2023-02-11T01:39:05.009Z,102175.81
2023-02-11T01:41:31.663Z,102177.47
2023-02-11T01:43:58.282Z,102176.66
2023-02-11T01:46:38.265Z,102168.69
2023-02-11T01:49:12.474Z,102169.31
2023-02-11T01:51:46.759Z,102163.41
2023-02-11T01:54:35.510Z,102160.75
2023-02-11T01:57:21.448Z,102168.06
2023-02-11T02:00:22.436Z,102157.81
2023-02-11T02:03:00.773Z,102163.13
2023-02-11T02:05:39.407Z,102169.44
2023-02-11T02:08:25.404Z,102170.47
2023-02-11T02:10:56.551Z,102176.75
2023-02-11T02:13:25.042Z,102175.34
2023-02-11T02:15:57.381Z,102176.34
2023-02-11T02:18:39.465Z,102173.88
2023-02-11T02:21:27.744Z,102165.09
2023-02-11T02:24:03.473Z,102166.31
2023-02-11T02:26:51.337Z,102166.50
2023-02-11T02:29:48.951Z,102174.81
2023-02-11T02:32:42.876Z,102182.31
2023-02-11T02:35:41.039Z,102180.44
2023-02-11T02:38:21.121Z,102192.44
2023-02-11T02:40:52.422Z,102186.03
2023-02-11T02:43:21.157Z,102176.66
2023-02-11T02:45:47.769Z,102175.66
2023-02-11T02:48:32.403Z,102175.84
2023-02-11T02:51:11.317Z,102174.19
2023-02-11T02:53:59.572Z,102178.06
2023-02-11T02:56:55.880Z,102183.53
2023-02-11T02:59:43.121Z,102182.09
2023-02-11T03:02:37.760Z,102187.56
2023-02-11T03:05:26.449Z,102184.09
2023-02-11T03:08:02.762Z,102184.31
2023-02-11T03:10:33.212Z,102187.75
2023-02-11T03:13:00.974Z,102183.28
2023-02-11T03:15:30.692Z,102184.75
2023-02-11T03:18:00.557Z,102175.34
2023-02-11T03:20:30.420Z,102170.84
2023-02-11T03:23:09.496Z,102176.97
2023-02-11T03:25:44.365Z,102181.25
2023-02-11T03:28:22.216Z,102183.91
2023-02-11T03:30:55.302Z,102183.09
2023-02-11T03:33:38.158Z,102191.22
2023-02-11T03:36:15.886Z,102176.16
2023-02-11T03:38:48.656Z,102184.75
2023-02-11T03:41:17.709Z,102173.31
2023-02-11T03:43:57.078Z,102179.44
2023-02-11T03:46:37.437Z,102184.75
2023-02-11T03:49:09.885Z,102185.34
2023-02-11T03:51:38.095Z,102188.00
2023-02-11T03:54:10.650Z,102187.19
2023-02-11T03:56:43.980Z,102191.47
2023-02-11T03:59:10.780Z,102184.53
2023-02-11T04:01:37.346Z,102196.97
2023-02-11T04:04:04.092Z,102191.47
2023-02-11T04:06:30.612Z,102189.84
2023-02-11T04:08:57.124Z,102194.13
2023-02-11T04:11:23.692Z,102204.72
2023-02-11T04:13:50.194Z,102205.53
2023-02-11T04:16:16.727Z,102204.72
2023-02-11T04:18:43.281Z,102204.72
2023-02-11T04:21:09.933Z,102204.72
2023-02-11T04:23:36.641Z,102204.91
2023-02-11T04:26:03.790Z,102203.91
2023-02-11T04:28:31.491Z,102209.19
2023-02-11T04:30:58.387Z,102209.41
2023-02-11T04:33:25.096Z,102216.31
2023-02-11T04:35:52.040Z,102216.31
2023-02-11T04:38:18.811Z,102217.13
2023-02-11T04:40:45.368Z,102213.69
2023-02-11T04:43:11.896Z,102212.66
2023-02-11T04:45:38.452Z,102202.44
2023-02-11T04:48:05.097Z,102205.94
2023-02-11T04:50:31.640Z,102207.72
2023-02-11T04:52:58.229Z,102215.69
2023-02-11T04:55:24.749Z,102217.34
2023-02-11T04:57:51.339Z,102214.88
2023-02-11T05:00:18.188Z,102216.69
2023-02-11T05:02:44.711Z,102222.00
2023-02-11T05:05:11.292Z,102223.63
2023-02-11T05:07:37.815Z,102237.88
2023-02-11T05:10:05.052Z,102242.16
2023-02-11T05:12:31.615Z,102251.13
2023-02-11T05:14:58.137Z,102247.66
2023-02-11T05:17:24.649Z,102251.13
2023-02-11T05:19:51.195Z,102256.25
2023-02-11T05:22:17.717Z,102260.09
2023-02-11T05:24:44.250Z,102260.28
2023-02-11T05:27:10.788Z,102262.94
2023-02-11T05:29:37.316Z,102256.63
2023-02-11T05:32:04.198Z,102255.00
2023-02-11T05:34:30.729Z,102253.31
2023-02-11T05:36:57.314Z,102250.69
2023-02-11T05:39:23.836Z,102251.69
2023-02-11T05:41:50.534Z,102253.53
2023-02-11T05:44:17.055Z,102261.47
2023-02-11T05:46:43.603Z,102270.44
2023-02-11T05:49:10.257Z,102267.78
2023-02-11T05:51:36.792Z,102259.03
2023-02-11T05:54:03.777Z,102256.53
2023-02-11T05:56:30.337Z,102258.38
2023-02-11T05:58:59.131Z,102257.56
2023-02-11T06:01:26.120Z,102257.56
2023-02-11T06:03:52.815Z,102251.44
2023-02-11T06:06:19.415Z,102248.16
2023-02-11T06:08:45.941Z,102259.56
2023-02-11T06:11:15.296Z,102262.41
2023-02-11T06:13:41.861Z,102274.63
2023-02-11T06:16:08.486Z,102274.47
2023-02-11T06:18:35.050Z,102280.13
2023-02-11T06:21:01.747Z,102277.47
2023-02-11T06:23:30.352Z,102275.84
2023-02-11T06:26:02.606Z,102274.81
2023-02-11T06:28:31.287Z,102274.19
2023-02-11T06:30:58.763Z,102280.28
2023-02-11T06:33:25.430Z,102278.66
2023-02-11T06:35:52.418Z,102272.53
2023-02-11T06:38:19.171Z,102283.13
2023-02-11T06:40:49.748Z,102283.94
2023-02-11T06:43:17.161Z,102280.69
2023-02-11T06:45:43.748Z,102290.25
2023-02-11T06:48:10.584Z,102292.91
2023-02-11T06:50:37.081Z,102297.56
2023-02-11T06:53:03.664Z,102299.38
2023-02-11T06:55:30.215Z,102295.91
2023-02-11T06:57:56.720Z,102300.19
2023-02-11T07:00:23.278Z,102305.50
2023-02-11T07:02:49.907Z,102306.50
2023-02-11T07:05:16.828Z,102296.13
2023-02-11T07:07:43.353Z,102296.72
2023-02-11T07:10:10.012Z,102288.78
2023-02-11T07:12:36.901Z,102286.34
2023-02-11T07:15:03.790Z,102287.97
2023-02-11T07:17:30.383Z,102296.94
2023-02-11T07:19:56.940Z,102292.44
2023-02-11T07:22:23.495Z,102290.63
2023-02-11T07:24:50.039Z,102294.28
2023-02-11T07:27:16.536Z,102295.09
2023-02-11T07:29:43.331Z,102304.88
2023-02-11T07:32:09.931Z,102306.72
2023-02-11T07:34:36.674Z,102312.16
2023-02-11T07:37:03.226Z,102314.81
2023-02-11T07:39:29.898Z,102320.97
2023-02-11T07:41:56.868Z,102330.69
2023-02-11T07:44:23.473Z,102333.34
2023-02-11T07:46:50.082Z,102336.00
2023-02-11T07:49:16.840Z,102333.34
2023-02-11T07:51:43.670Z,102339.66
2023-02-11T07:54:11.578Z,102332.53
2023-02-11T07:56:38.125Z,102329.06
2023-02-11T07:59:04.688Z,102328.91
2023-02-11T08:01:31.489Z,102326.41
2023-02-11T08:03:59.652Z,102333.34
2023-02-11T08:06:28.348Z,102342.13
2023-02-11T08:08:55.172Z,102348.06
2023-02-11T08:11:24.162Z,102345.22
2023-02-11T08:13:50.887Z,102351.34
2023-02-11T08:16:35.461Z,102356.81
2023-02-11T08:19:06.513Z,102366.22
2023-02-11T08:21:33.129Z,102354.81
2023-02-11T08:24:01.904Z,102351.16
2023-02-11T08:26:31.795Z,102350.34
2023-02-11T08:28:59.188Z,102348.31
2023-02-11T08:31:37.424Z,102351.78
2023-02-11T08:34:04.699Z,102358.09
2023-02-11T08:36:34.596Z,102352.63
2023-02-11T08:39:18.179Z,102349.78
2023-02-11T08:41:51.476Z,102353.09
2023-02-11T08:44:21.830Z,102357.16
2023-02-11T08:46:49.638Z,102362.47
2023-02-11T08:49:16.606Z,102360.63
2023-02-11T08:51:43.738Z,102365.56
2023-02-11T08:54:10.448Z,102359.44
2023-02-11T08:56:38.833Z,102355.78
2023-02-11T08:59:06.464Z,102367.66
2023-02-11T09:01:33.703Z,102358.69
2023-02-11T09:04:01.103Z,102354.06
2023-02-11T09:06:28.334Z,102357.34
2023-02-11T09:08:57.172Z,102361.44
2023-02-11T09:11:35.947Z,102365.72
2023-02-11T09:14:03.430Z,102369.22
2023-02-11T09:16:32.553Z,102360.25
2023-02-11T09:19:01.197Z,102369.63
2023-02-11T09:21:28.716Z,102371.47
2023-02-11T09:23:55.773Z,102379.88
2023-02-11T09:26:26.482Z,102377.22
2023-02-11T09:28:53.118Z,102375.22
2023-02-11T09:31:22.954Z,102367.91
2023-02-11T09:33:53.582Z,102375.47
2023-02-11T09:36:23.132Z,102377.94
2023-02-11T09:38:50.258Z,102374.91
2023-02-11T09:41:41.225Z,102371.91
2023-02-11T09:44:16.509Z,102386.66
2023-02-11T09:46:46.976Z,102393.38
2023-02-11T09:49:23.109Z,102397.50
2023-02-11T09:52:03.092Z,102393.66
2023-02-11T09:55:01.798Z,102389.19
2023-02-11T09:57:36.542Z,102400.41
2023-02-11T10:00:36.356Z,102401.03
2023-02-11T10:03:21.218Z,102406.81
2023-02-11T10:06:07.365Z,102396.00
2023-02-11T10:08:49.960Z,102400.94
2023-02-11T10:11:31.621Z,102394.00
2023-02-11T10:13:58.789Z,102397.06
2023-02-11T10:16:43.425Z,102391.59
2023-02-11T10:19:11.377Z,102391.84
2023-02-11T10:22:19.915Z,102385.97
2023-02-11T10:24:54.399Z,102381.75
2023-02-11T10:27:24.764Z,102376.50
2023-02-11T10:30:02.734Z,102379.22
2023-02-11T10:33:12.173Z,102373.19
2023-02-11T10:35:38.796Z,102375.06
2023-02-11T10:38:05.603Z,102370.19
2023-02-11T10:40:32.300Z,102370.63
2023-02-11T10:43:02.800Z,102380.66
2023-02-11T10:45:47.586Z,102391.72
2023-02-11T10:48:51.561Z,102392.16
2023-02-11T10:51:34.365Z,102375.66
2023-02-11T10:54:03.824Z,102372.41
2023-02-11T10:56:32.921Z,102380.00
2023-02-11T10:58:59.438Z,102381.25
2023-02-11T11:01:46.769Z,102377.41
2023-02-11T11:04:33.712Z,102372.72
2023-02-11T11:07:30.464Z,102372.31
2023-02-11T11:10:07.422Z,102370.94
2023-02-11T11:12:46.135Z,102380.56
2023-02-11T11:15:18.797Z,102367.53
2023-02-11T11:17:46.259Z,102363.91
2023-02-11T11:20:39.275Z,102372.34
2023-02-11T11:23:21.570Z,102374.22
2023-02-11T11:26:05.147Z,102367.91
2023-02-11T11:28:38.793Z,102375.97
2023-02-11T11:31:12.379Z,102371.69
2023-02-11T11:33:42.881Z,102372.94
2023-02-11T11:36:15.839Z,102374.97
2023-02-11T11:38:58.408Z,102367.06
2023-02-11T11:41:32.705Z,102374.63
2023-02-11T11:44:19.472Z,102365.63
2023-02-11T11:46:48.917Z,102363.63
2023-02-11T11:49:33.052Z,102365.84
2023-02-11T11:52:34.689Z,102371.19
2023-02-11T11:55:17.446Z,102371.63
2023-02-11T11:57:44.424Z,102359.34
2023-02-11T12:00:17.516Z,102355.50
2023-02-11T12:03:06.940Z,102343.44
2023-02-11T12:05:42.420Z,102360.63
2023-02-11T12:08:29.510Z,102356.38
2023-02-11T12:11:32.046Z,102343.44
2023-02-11T12:14:24.825Z,102342.25
2023-02-11T12:17:07.360Z,102344.28
2023-02-11T12:20:02.396Z,102346.34
2023-02-11T12:23:01.186Z,102350.03
2023-02-11T12:25:29.705Z,102342.66
2023-02-11T12:28:11.213Z,102343.91
2023-02-11T12:30:56.097Z,102346.38
2023-02-11T12:33:44.943Z,102354.13
2023-02-11T12:36:26.716Z,102350.44
2023-02-11T12:39:08.447Z,102349.66
2023-02-11T12:42:08.868Z,102335.53
2023-02-11T12:44:58.320Z,102334.31
2023-02-11T12:47:33.843Z,102345.34
2023-02-11T12:50:17.001Z,102336.56
2023-02-11T12:53:07.268Z,102341.91
2023-02-11T12:55:39.646Z,102351.94
2023-02-11T12:58:14.980Z,102355.81
2023-02-11T13:01:15.139Z,102375.06
2023-02-11T13:03:55.042Z,102360.75
2023-02-11T13:06:57.530Z,102361.56
2023-02-11T13:09:36.803Z,102358.50
2023-02-11T13:12:25.221Z,102349.66
2023-02-11T13:14:56.985Z,102350.88
2023-02-11T13:17:34.105Z,102353.31
2023-02-11T13:20:08.088Z,102345.84
2023-02-11T13:22:44.141Z,102346.66
2023-02-11T13:25:31.871Z,102351.50
2023-02-11T13:28:15.886Z,102352.63
2023-02-11T13:30:47.487Z,102359.16
2023-02-11T13:33:16.928Z,102362.63
2023-02-11T13:35:58.639Z,102362.31
2023-02-11T13:38:27.942Z,102354.44
2023-02-11T13:41:04.011Z,102350.03
2023-02-11T13:43:33.318Z,102353.44
2023-02-11T13:46:06.019Z,102352.09
2023-02-11T13:48:36.910Z,102359.66
2023-02-11T13:51:09.994Z,102347.88
2023-02-11T13:53:47.452Z,102342.81
2023-02-11T13:56:37.688Z,102343.16
2023-02-11T13:59:30.649Z,102345.34
2023-02-11T14:02:18.615Z,102346.81
2023-02-11T14:05:24.862Z,102356.88
2023-02-11T14:08:28.186Z,102356.50
2023-02-11T14:10:59.903Z,102350.19
2023-02-11T14:13:30.410Z,102354.31
2023-02-11T14:16:11.534Z,102350.47
2023-02-11T14:18:44.122Z,102351.94
2023-02-11T14:21:16.860Z,102352.38
2023-02-11T14:23:43.859Z,102338.66
2023-02-11T14:26:34.892Z,102350.34
2023-02-11T14:29:37.545Z,102347.09
2023-02-11T14:32:09.425Z,102356.34
2023-02-11T14:34:57.667Z,102355.78
2023-02-11T14:37:52.853Z,102363.41
2023-02-11T14:40:19.318Z,102365.88
2023-02-11T14:42:45.886Z,102362.84
2023-02-11T14:45:20.306Z,102368.25
2023-02-11T14:47:53.129Z,102366.22
2023-02-11T14:50:26.834Z,102360.69
2023-02-11T14:52:54.678Z,102351.50
2023-02-11T14:55:32.096Z,102364.69
2023-02-11T14:58:29.658Z,102366.38
2023-02-11T15:00:57.873Z,102362.69
2023-02-11T15:03:28.429Z,102370.53
2023-02-11T15:06:12.772Z,102375.72
2023-02-11T15:08:44.627Z,102373.88
2023-02-11T15:11:14.274Z,102370.00
2023-02-11T15:13:48.111Z,102376.00
2023-02-11T15:16:18.893Z,102376.63
2023-02-11T15:18:52.011Z,102372.72
2023-02-11T15:21:24.489Z,102379.50
2023-02-11T15:24:20.607Z,102383.63
2023-02-11T15:27:02.595Z,102386.09
2023-02-11T15:29:41.629Z,102389.63
2023-02-11T15:32:17.059Z,102394.56
2023-02-11T15:34:45.555Z,102394.97
2023-02-11T15:37:24.540Z,102392.13
2023-02-11T15:39:52.249Z,102395.44
2023-02-11T15:42:27.891Z,102399.56
2023-02-11T15:45:09.637Z,102400.78
2023-02-11T15:47:36.594Z,102404.06
2023-02-11T15:50:03.509Z,102407.38
2023-02-11T15:52:30.999Z,102397.53
2023-02-11T15:55:02.386Z,102405.75
2023-02-11T15:57:29.540Z,102401.63
2023-02-11T15:59:57.099Z,102405.53
2023-02-11T16:02:31.883Z,102406.97
2023-02-11T16:05:05.742Z,102396.94
2023-02-11T16:07:49.901Z,102399.00
2023-02-11T16:10:16.532Z,102394.91
2023-02-11T16:12:54.813Z,102401.91
2023-02-11T16:15:33.452Z,102397.78
2023-02-11T16:18:02.684Z,102395.34
2023-02-11T16:20:29.405Z,102391.47
2023-02-11T16:22:56.072Z,102398.81
2023-02-11T16:25:23.792Z,102392.28
2023-02-11T16:27:54.410Z,102398.81
2023-02-11T16:30:44.413Z,102402.91
2023-02-11T16:33:11.912Z,102409.69
2023-02-11T16:35:38.605Z,102406.81
2023-02-11T16:38:05.135Z,102402.53
2023-02-11T16:40:31.820Z,102406.63
2023-02-11T16:42:58.407Z,102409.69
2023-02-11T16:45:24.944Z,102416.41
2023-02-11T16:47:51.471Z,102427.28
2023-02-11T16:50:23.355Z,102423.16
2023-02-11T16:52:50.205Z,102420.91
2023-02-11T16:55:16.825Z,102419.06
2023-02-11T16:57:43.338Z,102416.63
2023-02-11T17:00:15.487Z,102411.88
2023-02-11T17:02:42.324Z,102422.94
2023-02-11T17:05:17.461Z,102423.34
2023-02-11T17:07:43.993Z,102423.94
2023-02-11T17:10:18.868Z,102431.69
2023-02-11T17:12:45.514Z,102435.59
2023-02-11T17:15:12.025Z,102439.47
2023-02-11T17:17:38.610Z,102442.53
2023-02-11T17:20:06.145Z,102427.56
2023-02-11T17:22:33.257Z,102433.91
2023-02-11T17:24:59.859Z,102440.84
2023-02-11T17:27:26.346Z,102444.13
2023-02-11T17:29:52.901Z,102450.66
2023-02-11T17:32:19.573Z,102451.84
2023-02-11T17:34:46.306Z,102454.94
2023-02-11T17:37:12.820Z,102463.91
2023-02-11T17:39:40.189Z,102461.63
2023-02-11T17:42:07.249Z,102459.56
2023-02-11T17:44:34.106Z,102459.34
2023-02-11T17:47:00.768Z,102462.00
2023-02-11T17:49:27.599Z,102450.78
2023-02-11T17:51:54.466Z,102458.50
2023-02-11T17:54:21.196Z,102474.22
2023-02-11T17:56:50.609Z,102470.91
2023-02-11T17:59:17.685Z,102466.03
2023-02-11T18:01:44.225Z,102470.28
2023-02-11T18:04:14.972Z,102490.09
2023-02-11T18:06:42.931Z,102490.88
2023-02-11T18:09:09.710Z,102495.75
2023-02-11T18:11:37.644Z,102504.31
2023-02-11T18:14:07.725Z,102510.19
2023-02-11T18:16:36.530Z,102513.69
2023-02-11T18:19:03.535Z,102519.34
2023-02-11T18:21:30.411Z,102520.56
2023-02-11T18:23:57.432Z,102517.06
2023-02-11T18:26:28.131Z,102514.16
2023-02-11T18:28:57.865Z,102516.22
2023-02-11T18:31:26.691Z,102523.16
2023-02-11T18:33:53.923Z,102525.38
2023-02-11T18:36:20.630Z,102524.94
2023-02-11T18:38:47.272Z,102522.47
2023-02-11T18:41:14.209Z,102531.63
2023-02-11T18:43:41.268Z,102527.53
2023-02-11T18:46:10.746Z,102541.00
2023-02-11T18:48:37.993Z,102545.50
2023-02-11T18:51:10.128Z,102535.25
2023-02-11T18:53:36.732Z,102528.47
2023-02-11T18:56:11.022Z,102539.50
2023-02-11T18:58:38.450Z,102544.00
2023-02-11T19:01:13.637Z,102543.34
2023-02-11T19:03:40.462Z,102537.22
2023-02-11T19:06:08.013Z,102532.94
2023-02-11T19:08:34.605Z,102530.66
2023-02-11T19:11:04.582Z,102533.31
2023-02-11T19:13:31.192Z,102535.31
2023-02-11T19:15:57.847Z,102531.41
2023-02-11T19:18:24.796Z,102523.84
2023-02-11T19:20:51.349Z,102527.47
2023-02-11T19:23:17.901Z,102520.53
2023-02-11T19:25:46.851Z,102533.00
2023-02-11T19:28:13.969Z,102527.88
2023-02-11T19:30:40.919Z,102538.06
2023-02-11T19:33:10.067Z,102534.38
2023-02-11T19:35:36.837Z,102533.13
2023-02-11T19:38:06.438Z,102536.13
2023-02-11T19:40:33.225Z,102535.31
2023-02-11T19:43:00.106Z,102534.66
2023-02-11T19:45:27.051Z,102545.28
2023-02-11T19:47:57.369Z,102537.91
2023-02-11T19:50:24.418Z,102532.59
2023-02-11T19:52:51.145Z,102538.09
2023-02-11T19:55:17.802Z,102549.28
2023-02-11T19:57:44.367Z,102555.78
2023-02-11T20:00:11.376Z,102543.16
2023-02-11T20:02:39.320Z,102542.69
2023-02-11T20:05:06.809Z,102546.34
2023-02-11T20:07:33.458Z,102554.50
2023-02-11T20:10:00.164Z,102562.66
2023-02-11T20:12:26.702Z,102565.47
2023-02-11T20:14:53.218Z,102558.72
2023-02-11T20:17:19.783Z,102546.44
2023-02-11T20:19:46.297Z,102542.16
2023-02-11T20:22:12.894Z,102542.53
2023-02-11T20:24:39.468Z,102548.66
2023-02-11T20:27:08.407Z,102549.06
2023-02-11T20:29:35.183Z,102549.22
2023-02-11T20:32:03.425Z,102549.63
2023-02-11T20:34:31.595Z,102562.69
2023-02-11T20:36:59.586Z,102555.75
2023-02-11T20:39:26.895Z,102559.22
2023-02-11T20:41:54.510Z,102558.56
2023-02-11T20:44:22.450Z,102560.59
2023-02-11T20:46:49.722Z,102561.78
2023-02-11T20:49:19.955Z,102550.34
2023-02-11T20:51:47.290Z,102556.66
2023-02-11T20:54:19.697Z,102562.34
2023-02-11T20:56:48.310Z,102560.69
2023-02-11T20:59:16.695Z,102559.69
2023-02-11T21:01:45.937Z,102565.34
2023-02-11T21:04:22.391Z,102570.84
2023-02-11T21:06:52.345Z,102579.81
2023-02-11T21:09:21.654Z,102580.19
2023-02-11T21:11:51.595Z,102579.34
2023-02-11T21:14:19.861Z,102583.81
2023-02-11T21:16:47.901Z,102583.38
2023-02-11T21:19:15.094Z,102578.09
2023-02-11T21:21:41.977Z,102591.50
2023-02-11T21:24:10.302Z,102591.50
2023-02-11T21:26:37.488Z,102588.22
2023-02-11T21:29:05.909Z,102593.53
2023-02-11T21:31:34.039Z,102589.22
2023-02-11T21:34:00.993Z,102597.16
2023-02-11T21:36:28.958Z,102600.38
2023-02-11T21:38:55.652Z,102591.59
2023-02-11T21:41:22.737Z,102592.97
2023-02-11T21:43:50.393Z,102586.84
2023-02-11T21:46:17.978Z,102591.13
2023-02-11T21:48:44.695Z,102604.94
2023-02-11T21:51:20.361Z,102603.94
2023-02-11T21:53:47.479Z,102599.63
2023-02-11T21:56:18.616Z,102604.94
2023-02-11T21:58:45.731Z,102601.00
2023-02-11T22:01:21.463Z,102606.50
2023-02-11T22:03:48.104Z,102604.84
2023-02-11T22:06:18.830Z,102605.84
2023-02-11T22:08:45.384Z,102606.19
2023-02-11T22:11:12.940Z,102606.84
2023-02-11T22:13:40.460Z,102605.38
2023-02-11T22:16:10.750Z,102611.69
2023-02-11T22:18:37.828Z,102621.47
2023-02-11T22:21:07.301Z,102616.34
2023-02-11T22:23:34.641Z,102610.56
2023-02-11T22:26:05.618Z,102605.63
2023-02-11T22:28:32.247Z,102615.22
2023-02-11T22:30:59.612Z,102619.88
2023-02-11T22:33:27.683Z,102612.91
2023-02-11T22:36:02.194Z,102610.47
2023-02-11T22:38:31.129Z,102614.13
2023-02-11T22:40:59.368Z,102602.72
2023-02-11T22:43:27.644Z,102612.66
2023-02-11T22:45:56.405Z,102617.13
2023-02-11T22:48:23.348Z,102623.44
2023-02-11T22:50:50.033Z,102615.50
2023-02-11T22:53:16.602Z,102612.19
2023-02-11T22:55:43.245Z,102616.00
2023-02-11T22:58:10.437Z,102616.84
2023-02-11T23:00:40.976Z,102617.00
2023-02-11T23:03:08.698Z,102620.66
2023-02-11T23:05:40.033Z,102626.97
2023-02-11T23:08:08.424Z,102624.69
2023-02-11T23:10:36.633Z,102621.38
2023-02-11T23:13:05.194Z,102628.16
2023-02-11T23:15:32.298Z,102630.16
2023-02-11T23:17:59.212Z,102632.81
2023-02-11T23:20:25.889Z,102632.16
2023-02-11T23:22:52.590Z,102629.69
2023-02-11T23:25:19.160Z,102637.81
2023-02-11T23:27:45.665Z,102633.16
2023-02-11T23:30:12.964Z,102629.38
2023-02-11T23:32:39.599Z,102633.72
2023-02-11T23:35:06.459Z,102641.81
2023-02-11T23:37:33.079Z,102637.34
2023-02-11T23:39:59.639Z,102641.00
2023-02-11T23:42:26.154Z,102644.00
2023-02-11T23:44:52.747Z,102647.03
2023-02-11T23:47:19.281Z,102644.19
2023-02-11T23:49:45.829Z,102638.06
2023-02-11T23:52:12.334Z,102637.25
2023-02-11T23:54:38.821Z,102640.88
2023-02-11T23:57:08.551Z,102637.59
2023-02-11T23:59:35.035Z,102637.59
